Pendleton, New York
Current Conditions -  °F | °C
As of 11:53 PM on Monday 22 Dec 2014 (Local Time) from KIAG Reporting Station
Clear Clear  
Wind Chill: -2°   Ceiling: Unl
Heat Index:   Visibility: 9mi
Dew Point: -3°   Wind: 5mph
Humidity: 78%   Direction: 110°ESE
Pressure: 30.01"   Gusts: NA
Location:  43.0772°N, 78.8339°W
Report Text: KIAG 230453Z AUTO 11004KT 9SM CLR 01/M03 A3001 RMK AO2 SLP177 T00061028 400391033
Loading
Personal Weather Stations






























Interactive Weather Map New forecast layout! Learn more

10-Day Weather Forecast

Advertisements
Track Severe Weather on mobile